Time;durP1;ratioP1;P1;durP2;ratioP2;P2;SDS_P1;SDS_P2;PMS_P1;PMS_P2;Temp;Humidity;BMP_temperature;BMP_pressure;BME280_temperature;BME280_humidity;BME280_pressure;Samples;Min_cycle;Max_cycle;Signal;HPM_P1;HPM_P2
2022/08/22 00:01:13;;;;;;;15.55;5.18;;;17.20;99.90;;;;;;5040720;28;20053;-70
2022/08/22 00:03:55;;;;;;;14.40;4.55;;;17.20;99.90;;;;;;5036421;28;20063;-70
2022/08/22 00:06:26;;;;;;;12.13;5.15;;;17.20;99.90;;;;;;5052257;28;20048;-70
2022/08/22 00:09:07;;;;;;;11.35;4.68;;;17.20;99.90;;;;;;5033636;28;20139;-70
2022/08/22 00:11:54;;;;;;;15.23;4.93;;;17.20;99.90;;;;;;5052417;28;20048;-70
2022/08/22 00:14:49;;;;;;;13.48;4.88;;;17.20;99.90;;;;;;5043573;28;20056;-70
2022/08/22 00:17:38;;;;;;;15.18;5.03;;;17.20;99.90;;;;;;5031816;28;20140;-70
2022/08/22 00:20:29;;;;;;;15.90;4.85;;;17.20;99.90;;;;;;5043286;28;20377;-70
2022/08/22 00:23:10;;;;;;;17.02;4.78;;;17.20;99.90;;;;;;5034623;28;20056;-70
2022/08/22 00:25:58;;;;;;;10.93;4.35;;;17.20;99.90;;;;;;5048217;28;20049;-70
2022/08/22 00:28:35;;;;;;;11.90;4.28;;;17.20;99.90;;;;;;5051131;28;20033;-70
2022/08/22 00:31:20;;;;;;;19.92;4.60;;;17.20;99.90;;;;;;5052234;28;20080;-70
2022/08/22 00:34:16;;;;;;;9.88;3.92;;;17.10;99.90;;;;;;5047590;28;20049;-70
2022/08/22 00:37:10;;;;;;;12.13;4.20;;;17.20;99.90;;;;;;5054941;28;20084;-70
2022/08/22 00:39:58;;;;;;;11.73;3.85;;;17.20;99.90;;;;;;5024328;28;20465;-70
2022/08/22 00:43:01;;;;;;;13.50;4.25;;;17.20;99.90;;;;;;5033902;28;20058;-70
2022/08/22 00:45:51;;;;;;;11.13;4.38;;;17.20;99.90;;;;;;5024350;28;20105;-70
2022/08/22 00:48:54;;;;;;;11.63;4.22;;;17.20;99.90;;;;;;5041344;28;20048;-70
2022/08/22 00:51:48;;;;;;;13.82;4.50;;;17.20;99.90;;;;;;5047931;28;20090;-70
2022/08/22 00:54:18;;;;;;;16.15;4.60;;;17.10;99.90;;;;;;5051808;28;20099;-70
2022/08/22 00:57:08;;;;;;;11.82;4.00;;;17.10;99.90;;;;;;5051538;28;20463;-70
2022/08/22 01:00:08;;;;;;;11.15;3.72;;;17.10;99.90;;;;;;5045748;28;20419;-69
2022/08/22 01:02:43;;;;;;;13.57;4.20;;;17.10;99.90;;;;;;5051309;28;20117;-70
2022/08/22 01:05:29;;;;;;;13.45;5.07;;;17.10;99.90;;;;;;5051616;28;20445;-70
2022/08/22 01:08:06;;;;;;;17.08;4.63;;;17.10;99.90;;;;;;5040213;28;20041;-70
2022/08/22 01:10:54;;;;;;;8.10;3.70;;;17.10;99.90;;;;;;5061232;28;20120;-70
2022/08/22 01:13:35;;;;;;;14.07;4.20;;;17.10;99.90;;;;;;5044227;28;20049;-70
2022/08/22 01:16:12;;;;;;;13.27;4.00;;;17.10;99.90;;;;;;5048595;28;20047;-70
2022/08/22 01:19:10;;;;;;;18.20;4.00;;;17.10;99.90;;;;;;5038263;28;20041;-70
2022/08/22 01:22:13;;;;;;;14.18;3.78;;;17.10;99.90;;;;;;5037397;28;20512;-70
2022/08/22 01:25:33;;;;;;;11.95;4.07;;;17.10;99.90;;;;;;5049916;28;20476;-71
2022/08/22 01:28:46;;;;;;;10.60;3.33;;;17.20;99.90;;;;;;4967895;28;20098;-70
2022/08/22 01:31:41;;;;;;;13.68;4.32;;;17.10;99.90;;;;;;5009062;28;20056;-70
2022/08/22 01:34:44;;;;;;;10.43;3.78;;;17.10;99.90;;;;;;5032529;28;20136;-70
2022/08/22 01:37:28;;;;;;;14.88;4.63;;;17.10;99.90;;;;;;5052154;28;20041;-70
2022/08/22 01:40:29;;;;;;;15.68;5.68;;;17.10;99.90;;;;;;5040269;28;20135;-70
2022/08/22 01:43:03;;;;;;;13.85;5.05;;;17.00;99.90;;;;;;5048190;28;20080;-70
2022/08/22 01:45:48;;;;;;;15.55;4.28;;;17.00;99.90;;;;;;5061669;28;20682;-70
2022/08/22 01:48:23;;;;;;;14.30;3.97;;;16.90;99.90;;;;;;5052678;28;20495;-70
2022/08/22 01:50:54;;;;;;;11.30;3.70;;;17.00;99.90;;;;;;5057388;28;20045;-69
2022/08/22 01:53:40;;;;;;;16.73;4.25;;;17.00;99.90;;;;;;5056557;28;20377;-69
2022/08/22 01:56:15;;;;;;;8.35;3.35;;;17.00;99.90;;;;;;5057153;28;20049;-70
2022/08/22 01:59:01;;;;;;;17.73;4.00;;;17.00;99.90;;;;;;5057126;28;20033;-70
2022/08/22 02:01:58;;;;;;;14.63;3.85;;;17.00;99.90;;;;;;5057168;28;20048;-70
2022/08/22 02:04:55;;;;;;;13.25;3.88;;;17.00;99.90;;;;;;5056565;28;20048;-70
2022/08/22 02:07:29;;;;;;;10.18;3.50;;;16.90;99.90;;;;;;5046143;28;20041;-70
2022/08/22 02:10:21;;;;;;;13.40;4.20;;;16.90;99.90;;;;;;5056048;28;20053;-70
2022/08/22 02:13:02;;;;;;;12.70;4.20;;;16.90;99.90;;;;;;5044637;28;20412;-70
2022/08/22 02:15:37;;;;;;;15.93;3.97;;;16.80;99.90;;;;;;5035673;28;20036;-70
2022/08/22 02:18:07;;;;;;;17.42;3.70;;;16.80;99.90;;;;;;5056144;28;20049;-71
2022/08/22 02:20:33;;;;;;;12.18;3.72;;;16.80;99.90;;;;;;5025964;28;20045;-69
2022/08/22 02:23:19;;;;;;;8.75;3.40;;;16.80;99.90;;;;;;5052298;28;20068;-70
2022/08/22 02:25:49;;;;;;;11.38;3.95;;;16.80;99.90;;;;;;5056506;28;20064;-70
2022/08/22 02:28:38;;;;;;;10.73;3.97;;;16.70;99.90;;;;;;5057250;28;20487;-70
2022/08/22 02:31:19;;;;;;;11.68;4.43;;;16.70;99.90;;;;;;5038377;28;20056;-70
2022/08/22 02:33:44;;;;;;;11.50;3.38;;;16.60;99.90;;;;;;5052994;28;20090;-70
2022/08/22 02:36:54;;;;;;;13.73;3.90;;;16.60;99.90;;;;;;5060095;28;20049;-69
2022/08/22 02:39:43;;;;;;;13.90;4.03;;;16.60;99.90;;;;;;5050093;28;20041;-70
2022/08/22 02:42:36;;;;;;;10.70;4.10;;;16.50;99.90;;;;;;5053485;28;20053;-70
2022/08/22 02:45:22;;;;;;;10.45;3.95;;;16.50;99.90;;;;;;5034719;28;20497;-70
2022/08/22 02:47:56;;;;;;;14.20;4.43;;;16.50;99.90;;;;;;5050066;28;20491;-70
2022/08/22 02:50:48;;;;;;;10.13;4.43;;;16.50;99.90;;;;;;5034953;28;20052;-70
2022/08/22 02:53:17;;;;;;;9.82;3.60;;;16.40;99.90;;;;;;5047542;28;20106;-70
2022/08/22 02:55:59;;;;;;;8.32;3.38;;;16.40;99.90;;;;;;5035888;28;20056;-70
2022/08/22 02:58:52;;;;;;;14.05;4.45;;;16.40;99.90;;;;;;5047979;28;20037;-70
2022/08/22 03:01:26;;;;;;;13.35;4.00;;;16.30;99.90;;;;;;5034860;28;20065;-70
2022/08/22 03:04:26;;;;;;;15.27;4.07;;;16.30;99.90;;;;;;5047923;28;20396;-70
2022/08/22 03:07:05;;;;;;;12.02;4.75;;;16.30;99.90;;;;;;5052334;28;20488;-70
2022/08/22 03:09:36;;;;;;;12.68;3.88;;;16.30;99.90;;;;;;5057005;28;20488;-69
2022/08/22 03:12:27;;;;;;;16.20;4.13;;;16.30;99.90;;;;;;5052890;28;20048;-69
2022/08/22 03:15:18;;;;;;;12.93;4.28;;;16.20;99.90;;;;;;5052684;28;20056;-70
2022/08/22 03:17:57;;;;;;;13.23;4.43;;;16.20;99.90;;;;;;5044780;28;20049;-69
2022/08/22 03:20:34;;;;;;;14.82;5.25;;;16.20;99.90;;;;;;5034387;28;20091;-69
2022/08/22 03:23:07;;;;;;;16.30;4.80;;;16.20;99.90;;;;;;5043279;28;20428;-70
2022/08/22 03:25:51;;;;;;;12.88;5.25;;;16.20;99.90;;;;;;5059343;28;20049;-70
2022/08/22 03:28:29;;;;;;;15.75;4.40;;;16.10;99.90;;;;;;5053046;28;20052;-70
2022/08/22 03:31:19;;;;;;;15.90;4.65;;;16.10;99.90;;;;;;5034414;28;20049;-70
2022/08/22 03:34:16;;;;;;;16.45;5.78;;;16.00;99.90;;;;;;5037489;28;20052;-70
2022/08/22 03:37:05;;;;;;;12.15;4.18;;;16.10;99.90;;;;;;5046860;28;20037;-70
2022/08/22 03:40:15;;;;;;;10.68;4.40;;;16.00;99.90;;;;;;5063125;28;20047;-70
2022/08/22 03:42:49;;;;;;;12.07;4.60;;;16.00;99.90;;;;;;4985038;28;20070;-70
2022/08/22 03:45:31;;;;;;;10.30;4.45;;;16.00;99.90;;;;;;4989243;28;20062;-70
2022/08/22 03:48:21;;;;;;;11.90;4.95;;;16.00;99.90;;;;;;5025898;28;20566;-70
2022/08/22 03:51:25;;;;;;;13.27;5.15;;;15.90;99.90;;;;;;5054532;28;20048;-70
2022/08/22 03:54:30;;;;;;;13.60;5.40;;;15.90;99.90;;;;;;5021915;28;20537;-69
2022/08/22 03:57:26;;;;;;;16.42;5.72;;;15.90;99.90;;;;;;5042567;28;20063;-70
2022/08/22 04:00:17;;;;;;;16.55;5.10;;;15.80;99.90;;;;;;5044917;28;20045;-70
2022/08/22 04:02:58;;;;;;;15.07;4.90;;;15.80;99.90;;;;;;5053116;28;20049;-70
2022/08/22 04:05:50;;;;;;;12.90;5.03;;;15.70;99.90;;;;;;5032463;28;20435;-70
2022/08/22 04:08:40;;;;;;;9.60;4.78;;;15.70;99.90;;;;;;5044367;28;20037;-70
2022/08/22 04:11:31;;;;;;;14.75;4.57;;;15.70;99.90;;;;;;5032409;28;20044;-70
2022/08/22 04:14:23;;;;;;;16.70;5.75;;;15.70;99.90;;;;;;5047016;28;20656;-69
2022/08/22 04:17:26;;;;;;;11.98;4.75;;;15.70;99.90;;;;;;5044326;28;20056;-70
2022/08/22 04:20:33;;;;;;;11.27;4.30;;;15.60;99.90;;;;;;5042186;28;20052;-69
2022/08/22 04:23:31;;;;;;;14.77;4.60;;;15.60;99.90;;;;;;5013714;28;20133;-69
2022/08/22 04:26:18;;;;;;;14.13;5.05;;;15.60;99.90;;;;;;5045912;28;20060;-70
2022/08/22 04:28:56;;;;;;;13.73;4.75;;;15.60;99.90;;;;;;5048252;28;20033;-69
2022/08/22 04:31:26;;;;;;;15.65;4.82;;;15.60;99.90;;;;;;5049990;28;20308;-69
2022/08/22 04:34:01;;;;;;;11.55;5.18;;;15.50;99.90;;;;;;5031020;28;20400;-70
2022/08/22 04:36:34;;;;;;;11.45;5.45;;;15.50;99.90;;;;;;5051296;28;20045;-70
2022/08/22 04:39:11;;;;;;;12.32;4.75;;;15.50;99.90;;;;;;5048630;28;20041;-70
2022/08/22 04:41:58;;;;;;;18.85;5.70;;;15.50;99.90;;;;;;5031643;28;20033;-70
2022/08/22 04:44:34;;;;;;;16.52;5.82;;;15.50;99.90;;;;;;5031163;28;20404;-70
2022/08/22 04:47:29;;;;;;;15.20;5.97;;;15.50;99.90;;;;;;5046018;28;20076;-70
2022/08/22 04:50:03;;;;;;;15.32;5.65;;;15.50;99.90;;;;;;5041939;28;20455;-69
2022/08/22 04:53:11;;;;;;;20.55;5.55;;;15.50;99.90;;;;;;5043949;28;20049;-69
2022/08/22 04:56:10;;;;;;;14.88;5.28;;;15.50;99.90;;;;;;5049659;28;20400;-69
2022/08/22 04:58:57;;;;;;;11.33;5.00;;;15.50;99.90;;;;;;5050899;28;20073;-69
2022/08/22 05:01:42;;;;;;;15.55;5.57;;;15.60;99.90;;;;;;5062643;28;20306;-70
2022/08/22 05:04:12;;;;;;;12.65;5.50;;;15.50;99.90;;;;;;5072160;28;20052;-70
2022/08/22 05:06:42;;;;;;;10.82;4.70;;;15.60;99.90;;;;;;5071922;28;20044;-70
2022/08/22 05:09:14;;;;;;;14.07;5.72;;;15.60;99.90;;;;;;5052122;28;20040;-71
2022/08/22 05:11:41;;;;;;;11.10;5.75;;;15.60;99.90;;;;;;5059189;28;20053;-69
2022/08/22 05:14:24;;;;;;;15.40;6.10;;;15.60;99.90;;;;;;5043993;28;20043;-70
2022/08/22 05:16:53;;;;;;;14.18;5.82;;;15.60;99.90;;;;;;5064152;28;20062;-70
2022/08/22 05:19:25;;;;;;;16.55;6.22;;;15.60;99.90;;;;;;5068435;28;20048;-70
2022/08/22 05:21:51;;;;;;;17.20;6.72;;;15.60;99.90;;;;;;5068007;28;20084;-69
2022/08/22 05:24:32;;;;;;;16.13;6.45;;;15.60;99.90;;;;;;5052678;28;20137;-69
2022/08/22 05:27:07;;;;;;;14.80;6.18;;;15.60;99.90;;;;;;5061725;28;20499;-69
2022/08/22 05:29:33;;;;;;;14.57;6.00;;;15.70;99.90;;;;;;5070228;28;20174;-69
2022/08/22 05:32:05;;;;;;;15.43;5.65;;;15.70;99.90;;;;;;5067993;28;20119;-70
2022/08/22 05:34:37;;;;;;;14.95;6.53;;;15.70;99.90;;;;;;5068557;28;20411;-69
2022/08/22 05:37:21;;;;;;;15.10;6.13;;;15.80;99.90;;;;;;5063243;28;20078;-71
2022/08/22 05:39:52;;;;;;;13.48;6.47;;;15.80;99.90;;;;;;5067654;28;20507;-68
2022/08/22 05:42:25;;;;;;;17.63;6.60;;;15.80;99.90;;;;;;5070690;28;20041;-68
2022/08/22 05:44:52;;;;;;;22.45;7.00;;;15.80;99.90;;;;;;5070714;28;20048;-68
2022/08/22 05:47:23;;;;;;;16.52;6.60;;;15.90;99.90;;;;;;5047268;28;20547;-70
2022/08/22 05:50:07;;;;;;;15.90;6.88;;;15.90;99.90;;;;;;5060050;28;20108;-70
2022/08/22 05:52:55;;;;;;;15.10;6.35;;;16.00;99.90;;;;;;5064652;28;20048;-70
2022/08/22 05:55:31;;;;;;;13.18;6.00;;;16.00;99.90;;;;;;5056039;28;20080;-70
2022/08/22 05:58:38;;;;;;;11.95;6.22;;;16.10;99.90;;;;;;5070794;28;20040;-69
2022/08/22 06:01:23;;;;;;;12.90;5.70;;;16.10;99.90;;;;;;5065541;28;20088;-70
2022/08/22 06:03:57;;;;;;;16.73;6.65;;;16.20;99.90;;;;;;5064226;28;20393;-69
2022/08/22 06:06:25;;;;;;;16.95;7.20;;;16.20;99.90;;;;;;5064987;28;20041;-69
2022/08/22 06:09:04;;;;;;;16.13;6.05;;;16.20;99.90;;;;;;5070258;28;20087;-70
2022/08/22 06:11:36;;;;;;;;;;;16.30;99.90;;;;;;5070402;28;20094;-69
2022/08/22 06:14:13;;;;;;;19.13;6.00;;;16.40;99.90;;;;;;5067184;28;19943;-69
2022/08/22 06:17:09;;;;;;;14.57;6.22;;;16.50;99.90;;;;;;5055928;28;20125;-70
2022/08/22 06:19:40;;;;;;;12.85;5.35;;;16.60;99.90;;;;;;5055575;28;20350;-70
2022/08/22 06:22:06;;;;;;;15.95;5.60;;;16.70;99.90;;;;;;5071480;28;20044;-69
2022/08/22 06:24:36;;;;;;;10.07;5.18;;;16.90;99.90;;;;;;5074816;28;20036;-69
2022/08/22 06:27:08;;;;;;;9.52;5.10;;;17.10;99.90;;;;;;5056596;28;20391;-69
2022/08/22 06:29:39;;;;;;;15.52;6.75;;;17.20;99.90;;;;;;5064519;28;20127;-70
2022/08/22 06:32:19;;;;;;;11.55;5.53;;;17.30;99.90;;;;;;5069749;28;20044;-70
2022/08/22 06:34:46;;;;;;;17.67;5.57;;;17.40;99.90;;;;;;5072002;28;20037;-70
2022/08/22 06:37:20;;;;;;;14.97;5.10;;;17.50;99.90;;;;;;5073014;28;20040;-69
2022/08/22 06:39:49;;;;;;;14.48;5.88;;;17.50;99.90;;;;;;5054299;28;20055;-70
2022/08/22 06:42:29;;;;;;;15.43;6.07;;;17.60;99.90;;;;;;5065399;28;20041;-69
2022/08/22 06:45:04;;;;;;;14.88;5.85;;;17.70;99.90;;;;;;5073215;28;20048;-70
2022/08/22 06:47:36;;;;;;;15.32;4.88;;;17.80;99.90;;;;;;5073651;28;20142;-71
2022/08/22 06:50:08;;;;;;;18.33;5.47;;;17.80;99.90;;;;;;5047008;28;20033;-70
2022/08/22 06:52:52;;;;;;;15.02;5.80;;;17.80;99.90;;;;;;5045926;28;20515;-70
2022/08/22 06:55:19;;;;;;;21.50;5.65;;;17.80;99.90;;;;;;5073229;28;20116;-70
2022/08/22 06:57:53;;;;;;;17.13;5.57;;;17.80;99.90;;;;;;5074163;28;20044;-69
2022/08/22 07:00:19;;;;;;;15.80;4.68;;;17.90;99.90;;;;;;5071195;28;20124;-70
2022/08/22 07:02:57;;;;;;;17.85;5.00;;;18.00;99.90;;;;;;5056488;28;20111;-69
2022/08/22 07:05:27;;;;;;;;;;;18.10;99.90;;;;;;5042390;28;21646;-69
2022/08/22 07:07:53;;;;;;;18.48;5.03;;;18.10;99.90;;;;;;5057377;28;19920;-70
2022/08/22 07:10:21;;;;;;;16.67;4.77;;;18.10;99.90;;;;;;5056383;28;20041;-70
2022/08/22 07:12:54;;;;;;;14.13;5.03;;;18.20;99.90;;;;;;5052564;28;20041;-70
2022/08/22 07:15:36;;;;;;;16.63;4.72;;;18.20;99.90;;;;;;5067791;28;20099;-70
2022/08/22 07:18:18;;;;;;;38.67;6.43;;;18.30;99.90;;;;;;5041252;28;20485;-70
2022/08/22 07:20:48;;;;;;;11.93;4.05;;;18.40;99.90;;;;;;5018295;28;20054;-69
2022/08/22 07:23:39;;;;;;;14.95;3.42;;;18.40;99.90;;;;;;5039704;28;20128;-69
2022/08/22 07:26:20;;;;;;;14.27;4.30;;;18.50;99.90;;;;;;5050560;28;20508;-70
2022/08/22 07:28:57;;;;;;;15.05;3.75;;;18.60;99.90;;;;;;5048407;28;20511;-69
2022/08/22 07:31:58;;;;;;;11.98;3.13;;;18.60;99.90;;;;;;5034955;28;20408;-70
2022/08/22 07:34:38;;;;;;;16.73;4.10;;;18.60;99.90;;;;;;4964194;28;20051;-70
2022/08/22 07:37:13;;;;;;;13.15;3.78;;;18.60;99.90;;;;;;5051564;28;20041;-69
2022/08/22 07:39:56;;;;;;;12.32;4.07;;;18.70;99.90;;;;;;5049237;28;20029;-70
2022/08/22 07:42:37;;;;;;;18.38;4.43;;;18.80;99.90;;;;;;5056041;28;20060;-70
2022/08/22 07:45:12;;;;;;;23.88;3.78;;;18.80;99.90;;;;;;5053358;28;20052;-70
2022/08/22 07:47:59;;;;;;;20.02;4.15;;;18.80;99.90;;;;;;5052433;28;20112;-69
2022/08/22 07:50:30;;;;;;;16.77;4.15;;;18.80;99.90;;;;;;5051748;28;20037;-70
2022/08/22 07:53:04;;;;;;;18.65;3.88;;;18.90;99.90;;;;;;5046490;28;20539;-70
2022/08/22 07:55:30;;;;;;;14.15;4.28;;;18.90;99.90;;;;;;5054255;28;20029;-71
2022/08/22 07:58:02;;;;;;;15.68;4.90;;;19.00;99.90;;;;;;5047254;28;20645;-69
2022/08/22 08:00:30;;;;;;;10.80;3.88;;;19.00;99.90;;;;;;5021805;28;20040;-70
2022/08/22 08:03:01;;;;;;;20.70;4.63;;;19.10;99.90;;;;;;5069461;28;20041;-70
2022/08/22 08:05:31;;;;;;;12.45;3.80;;;19.10;99.90;;;;;;5064553;28;20032;-70
2022/08/22 08:08:01;;;;;;;12.98;3.70;;;19.20;99.90;;;;;;5064923;28;20033;-70
2022/08/22 08:10:33;;;;;;;11.32;4.13;;;19.30;99.90;;;;;;5061800;28;20033;-70
2022/08/22 08:13:03;;;;;;;14.07;4.47;;;19.40;99.90;;;;;;5064883;28;20028;-70
2022/08/22 08:15:33;;;;;;;20.92;5.03;;;19.50;99.90;;;;;;5061209;28;20459;-71
2022/08/22 08:18:04;;;;;;;14.02;4.80;;;19.60;99.90;;;;;;5070806;28;20130;-70
2022/08/22 08:20:34;;;;;;;35.25;4.68;;;19.60;99.90;;;;;;5055210;28;20137;-69
2022/08/22 08:23:01;;;;;;;17.27;4.10;;;19.60;99.90;;;;;;5063517;28;20045;-69
2022/08/22 08:25:30;;;;;;;14.95;4.25;;;19.60;99.90;;;;;;5072850;28;20076;-70
2022/08/22 08:30:54;;;;;;;15.07;3.42;;;19.60;99.90;;;;;;5056001;28;20060;-70
2022/08/22 08:33:23;;;;;;;18.42;3.55;;;19.60;99.90;;;;;;5058520;28;20502;-70
2022/08/22 08:36:01;;;;;;;17.65;3.90;;;19.60;99.90;;;;;;5059289;28;20037;-70
2022/08/22 08:38:34;;;;;;;18.38;3.90;;;19.70;99.90;;;;;;5073273;28;20111;-70
2022/08/22 08:41:29;;;;;;;16.83;4.47;;;19.70;99.90;;;;;;5054805;28;20041;-69
2022/08/22 08:44:20;;;;;;;13.85;4.25;;;19.80;99.90;;;;;;5062067;28;20116;-70
2022/08/22 08:47:26;;;;;;;13.73;3.45;;;19.80;99.90;;;;;;5051181;28;20067;-69
2022/08/22 08:49:59;;;;;;;13.82;3.35;;;19.80;99.90;;;;;;5060520;28;20091;-70
2022/08/22 08:52:46;;;;;;;14.77;4.03;;;19.90;99.90;;;;;;5063187;28;20051;-70
2022/08/22 08:55:18;;;;;;;20.85;3.67;;;19.90;99.90;;;;;;5060220;28;20044;-69
2022/08/22 08:58:15;;;;;;;14.73;3.80;;;20.00;99.90;;;;;;5065133;28;20106;-70
2022/08/22 09:00:41;;;;;;;16.98;4.00;;;20.00;99.90;;;;;;5052212;28;20051;-69
2022/08/22 09:03:31;;;;;;;17.25;3.72;;;20.00;99.90;;;;;;5061803;28;20462;-70
2022/08/22 09:06:09;;;;;;;17.15;4.18;;;20.10;99.90;;;;;;5058319;28;20040;-70
2022/08/22 09:08:44;;;;;;;25.35;4.22;;;20.10;99.90;;;;;;5064401;28;20044;-70
2022/08/22 09:11:34;;;;;;;24.00;5.28;;;20.10;99.90;;;;;;5027423;28;20049;-69
2022/08/22 09:14:11;;;;;;;12.98;3.40;;;20.20;99.90;;;;;;5050839;28;20045;-71
2022/08/22 09:17:10;;;;;;;16.02;3.80;;;20.40;99.90;;;;;;5059779;28;20403;-70
2022/08/22 09:20:07;;;;;;;21.10;4.32;;;20.60;99.90;;;;;;5067439;28;20123;-70
2022/08/22 09:23:00;;;;;;;14.30;3.45;;;20.90;99.90;;;;;;5066245;28;20400;-70
2022/08/22 09:25:40;;;;;;;10.65;3.30;;;21.10;99.90;;;;;;5070914;28;20048;-71
2022/08/22 09:28:14;;;;;;;15.25;3.67;;;21.30;99.90;;;;;;5063536;28;20449;-70
2022/08/22 09:30:45;;;;;;;10.38;3.08;;;21.30;99.90;;;;;;5064407;28;20037;-71
2022/08/22 09:33:16;;;;;;;14.85;3.72;;;21.40;99.90;;;;;;5064597;28;20123;-71
2022/08/22 09:36:04;;;;;;;12.77;3.70;;;21.40;99.90;;;;;;5073596;28;20078;-69
2022/08/22 09:38:42;;;;;;;12.45;3.70;;;21.40;99.90;;;;;;5075771;28;20359;-70
2022/08/22 09:41:25;;;;;;;14.85;3.63;;;21.50;99.90;;;;;;5063564;28;20399;-70
2022/08/22 09:44:14;;;;;;;12.23;3.53;;;21.70;99.90;;;;;;5066519;28;20049;-70
2022/08/22 09:46:39;;;;;;;14.52;3.55;;;21.90;99.90;;;;;;5064666;28;20079;-70
2022/08/22 09:49:19;;;;;;;14.05;3.55;;;22.10;99.90;;;;;;5074405;28;20060;-70
2022/08/22 09:52:25;;;;;;;11.68;2.85;;;22.30;99.90;;;;;;5074552;28;20403;-70
2022/08/22 09:55:22;;;;;;;14.15;4.05;;;22.50;99.90;;;;;;5053889;28;20056;-70
2022/08/22 09:58:01;;;;;;;14.13;3.55;;;22.70;99.90;;;;;;5079079;28;20051;-68
2022/08/22 10:00:54;;;;;;;12.90;3.70;;;22.90;99.90;;;;;;5074993;28;20056;-70
2022/08/22 10:03:50;;;;;;;13.57;3.13;;;23.00;99.90;;;;;;5058072;28;20033;-70
2022/08/22 10:06:40;;;;;;;14.88;3.45;;;23.20;99.90;;;;;;5057947;28;20511;-69
2022/08/22 10:09:15;;;;;;;11.98;2.92;;;23.40;99.90;;;;;;5052212;28;20054;-69
2022/08/22 10:12:14;;;;;;;9.43;2.83;;;23.50;99.90;;;;;;5045645;28;20049;-70
2022/08/22 10:14:58;;;;;;;13.63;3.03;;;23.70;99.90;;;;;;5013626;28;20061;-69
2022/08/22 10:17:35;;;;;;;10.93;2.95;;;23.80;99.90;;;;;;5055705;28;20041;-70
2022/08/22 10:20:12;;;;;;;13.63;3.10;;;23.90;99.90;;;;;;5059103;28;20072;-70
2022/08/22 10:22:46;;;;;;;14.32;3.13;;;24.10;99.90;;;;;;5059033;28;20466;-70
2022/08/22 10:25:37;;;;;;;9.85;2.85;;;24.30;99.60;;;;;;5063039;28;20044;-71
2022/08/22 10:28:18;;;;;;;9.65;2.95;;;24.50;99.50;;;;;;5063192;28;20049;-72
2022/08/22 10:31:02;;;;;;;12.65;3.38;;;24.60;98.60;;;;;;5056452;28;20041;-72
2022/08/22 10:33:49;;;;;;;11.63;3.28;;;24.70;98.90;;;;;;5064880;28;20536;-72
2022/08/22 10:36:26;;;;;;;8.57;3.03;;;24.70;97.90;;;;;;5055558;28;20049;-73
2022/08/22 10:38:54;;;;;;;10.05;2.92;;;24.80;97.80;;;;;;5063428;28;20044;-72
2022/08/22 10:41:39;;;;;;;10.43;3.42;;;25.00;97.70;;;;;;5060492;28;20041;-73
2022/08/22 10:44:35;;;;;;;10.93;3.35;;;25.40;96.80;;;;;;5039848;28;20057;-72
2022/08/22 10:47:10;;;;;;;12.20;3.45;;;25.50;96.40;;;;;;5052518;28;20041;-75
2022/08/22 10:49:55;;;;;;;11.40;3.20;;;25.70;96.80;;;;;;5055041;28;20040;-72
2022/08/22 10:52:34;;;;;;;9.37;3.20;;;26.10;96.70;;;;;;5070574;28;20033;-72
2022/08/22 10:55:24;;;;;;;10.68;3.22;;;26.40;96.20;;;;;;5042378;28;20057;-72
2022/08/22 10:57:58;;;;;;;8.43;3.08;;;26.50;93.40;;;;;;5050499;28;20021;-72
2022/08/22 11:00:48;;;;;;;10.98;3.00;;;26.40;94.30;;;;;;5055517;28;20041;-72
2022/08/22 11:03:33;;;;;;;10.68;3.28;;;26.20;93.30;;;;;;5056495;28;20058;-71
2022/08/22 11:06:04;;;;;;;11.50;3.00;;;25.90;94.20;;;;;;5076246;28;20043;-72
2022/08/22 11:08:52;;;;;;;10.50;2.80;;;26.20;94.50;;;;;;5088681;28;20101;-72
2022/08/22 11:11:38;;;;;;;6.53;2.42;;;26.70;93.80;;;;;;5036916;28;20060;-72
2022/08/22 11:14:41;;;;;;;12.13;3.53;;;27.10;93.50;;;;;;5046880;28;20045;-71
2022/08/22 11:17:23;;;;;;;10.27;3.25;;;27.30;92.20;;;;;;5041293;28;20055;-72
2022/08/22 11:20:08;;;;;;;10.48;2.88;;;27.10;91.70;;;;;;5054286;28;20041;-71
2022/08/22 11:22:43;;;;;;;8.60;2.80;;;26.70;92.00;;;;;;5062830;28;20042;-71
2022/08/22 11:25:28;;;;;;;10.60;2.90;;;26.60;92.50;;;;;;5057524;28;20161;-71
2022/08/22 11:27:56;;;;;;;7.95;2.70;;;26.60;92.70;;;;;;5055603;28;20075;-70
2022/08/22 11:30:35;;;;;;;9.32;2.97;;;26.90;92.10;;;;;;5039196;28;20446;-70
2022/08/22 11:33:15;;;;;;;11.55;3.05;;;27.10;91.20;;;;;;5033299;28;20041;-72
2022/08/22 11:35:49;;;;;;;11.43;2.90;;;27.20;91.20;;;;;;5047037;28;20100;-71
2022/08/22 11:38:39;;;;;;;11.13;2.90;;;27.40;91.60;;;;;;5039072;28;20094;-70
2022/08/22 11:41:24;;;;;;;8.82;2.80;;;27.60;90.50;;;;;;5036791;28;20353;-70
2022/08/22 11:44:02;;;;;;;15.95;3.38;;;27.90;90.20;;;;;;5053403;28;20052;-72
2022/08/22 11:46:31;;;;;;;9.30;3.10;;;28.10;89.00;;;;;;5056035;28;20515;-70
2022/08/22 11:49:16;;;;;;;10.43;2.97;;;28.20;86.80;;;;;;5021576;28;20052;-71
2022/08/22 11:52:19;;;;;;;9.90;2.70;;;28.40;87.70;;;;;;5035309;28;20138;-70
2022/08/22 11:54:57;;;;;;;9.30;2.50;;;28.30;83.90;;;;;;5019073;28;20099;-70
2022/08/22 11:57:57;;;;;;;10.70;2.92;;;28.00;84.60;;;;;;5036465;28;20445;-70
2022/08/22 12:00:42;;;;;;;17.58;3.17;;;27.90;86.40;;;;;;5000132;28;20154;-71
2022/08/22 12:03:20;;;;;;;16.83;3.25;;;28.00;85.30;;;;;;5057641;28;20123;-72
2022/08/22 12:05:55;;;;;;;12.35;2.65;;;28.00;85.30;;;;;;5050385;28;20077;-71
2022/08/22 12:08:36;;;;;;;8.52;2.58;;;28.10;83.50;;;;;;5054570;28;20048;-70
2022/08/22 12:11:12;;;;;;;6.85;2.40;;;28.00;82.10;;;;;;5038047;28;20072;-70
2022/08/22 12:13:48;;;;;;;10.75;2.28;;;28.10;82.60;;;;;;5052867;28;20041;-69
2022/08/22 12:16:22;;;;;;;8.40;2.35;;;28.00;83.60;;;;;;5049778;28;20138;-70
2022/08/22 12:18:53;;;;;;;8.10;2.92;;;28.10;84.70;;;;;;5054301;28;20523;-70
2022/08/22 12:21:40;;;;;;;11.73;3.25;;;28.00;83.70;;;;;;5037007;28;20404;-69
2022/08/22 12:24:25;;;;;;;9.38;2.90;;;28.30;81.70;;;;;;5035555;28;20428;-70
2022/08/22 12:27:14;;;;;;;6.93;2.45;;;28.00;84.00;;;;;;5034213;28;20073;-71
2022/08/22 12:29:59;;;;;;;11.80;2.50;;;28.20;82.40;;;;;;5069252;28;20041;-70
2022/08/22 12:32:38;;;;;;;11.98;2.65;;;28.50;81.90;;;;;;5062651;28;20040;-71
2022/08/22 12:35:22;;;;;;;10.82;2.78;;;28.70;81.20;;;;;;5066553;28;20083;-71
2022/08/22 12:38:16;;;;;;;6.75;2.38;;;28.80;79.90;;;;;;5046817;28;20052;-71
2022/08/22 12:41:12;;;;;;;8.27;2.60;;;28.80;78.80;;;;;;5053970;28;20043;-70
2022/08/22 12:44:01;;;;;;;9.07;2.80;;;28.60;76.90;;;;;;5054899;28;20045;-71
2022/08/22 12:46:51;;;;;;;7.65;2.47;;;28.40;77.70;;;;;;5041323;28;20045;-72
2022/08/22 12:49:30;;;;;;;9.95;2.60;;;28.30;77.40;;;;;;5034202;28;20444;-70
2022/08/22 12:52:04;;;;;;;6.80;2.83;;;28.00;78.60;;;;;;5053403;28;20123;-70
2022/08/22 12:55:11;;;;;;;6.95;2.20;;;27.70;78.90;;;;;;5053166;28;20040;-69
2022/08/22 12:57:49;;;;;;;8.15;2.33;;;27.70;79.20;;;;;;5054014;28;20128;-70
2022/08/22 13:00:20;;;;;;;7.50;2.40;;;27.50;79.10;;;;;;5055431;28;20053;-70
2022/08/22 13:02:51;;;;;;;8.75;2.55;;;27.60;79.90;;;;;;5033024;28;20053;-70
2022/08/22 13:05:21;;;;;;;9.48;2.67;;;27.70;79.70;;;;;;5051428;28;20053;-70
2022/08/22 13:08:07;;;;;;;10.02;2.03;;;27.80;78.30;;;;;;5057862;28;20055;-69
2022/08/22 13:10:57;;;;;;;7.60;2.10;;;27.90;77.90;;;;;;5030943;28;20126;-69
2022/08/22 13:13:33;;;;;;;7.78;2.10;;;28.20;77.90;;;;;;5046316;28;20052;-70
2022/08/22 13:16:04;;;;;;;9.07;2.55;;;28.20;76.60;;;;;;5034556;28;20053;-70
2022/08/22 13:18:50;;;;;;;10.88;2.85;;;28.40;76.20;;;;;;5034950;28;20045;-70
2022/08/22 13:21:20;;;;;;;6.85;2.47;;;28.40;76.20;;;;;;5051603;28;20053;-69
2022/08/22 13:23:52;;;;;;;8.30;2.25;;;28.90;76.30;;;;;;5032680;28;20065;-70
2022/08/22 13:26:29;;;;;;;8.85;2.28;;;29.10;75.20;;;;;;5053694;28;20370;-69
2022/08/22 13:29:00;;;;;;;12.80;2.60;;;29.40;74.10;;;;;;5053815;28;20080;-70
2022/08/22 13:31:39;;;;;;;6.68;2.67;;;29.60;73.30;;;;;;5049585;28;20045;-70
2022/08/22 13:34:11;;;;;;;7.38;2.70;;;30.00;72.00;;;;;;5052188;28;20087;-71
2022/08/22 13:36:48;;;;;;;8.75;2.53;;;29.90;73.00;;;;;;5053507;28;20041;-69
2022/08/22 13:39:14;;;;;;;5.95;2.25;;;29.90;72.20;;;;;;5049728;28;20053;-71
2022/08/22 13:41:49;;;;;;;10.50;2.83;;;29.70;72.30;;;;;;5045733;28;20049;-70
2022/08/22 13:44:22;;;;;;;6.35;2.22;;;29.80;72.00;;;;;;5048128;28;20037;-70
2022/08/22 13:46:49;;;;;;;7.65;2.53;;;29.90;71.70;;;;;;5048915;28;20045;-68
2022/08/22 13:49:32;;;;;;;6.72;2.28;;;29.90;72.00;;;;;;5051319;28;20043;-69
2022/08/22 13:52:14;;;;;;;8.98;2.83;;;29.80;71.50;;;;;;5033070;28;20042;-70
2022/08/22 13:54:54;;;;;;;8.82;2.72;;;29.50;71.60;;;;;;5052534;28;20472;-69